.
WxDataArchive / Data Records for 2010-04-29
2010-04-28 April 2010 2010-04-30

Data Records for Thursday, 29 April 2010

Time	Temp	Chill	HIndex	Humid	Dewpt	 Wind 	HiWind	WindDir	Rain 	Barom 
-----	----	-----	------	-----	-----	------	------	-------	-----	----- 
00:00	41.6	41.6	41.6	74	33.9	0	0	---	0.00	29.957 
00:05	41.5	41.5	41.5	74	33.8	0	0	---	0.00	29.957 
00:10	41.3	41.3	41.3	74	33.6	0	0	---	0.00	29.957 
00:15	41.1	41.1	41.1	74	33.5	0	0	---	0.00	29.956 
00:20	40.9	40.9	40.9	75	33.6	0	0	---	0.00	29.956 
00:25	40.8	40.8	40.8	75	33.5	0	0	---	0.00	29.956 
00:30	40.6	40.6	40.6	76	33.6	0	0	---	0.00	29.959 
00:35	40.5	40.5	40.5	76	33.5	0	0	---	0.00	29.959 
00:40	40.3	40.3	40.3	77	33.7	0	0	---	0.00	29.959 
00:45	40.3	40.3	40.3	78	34.0	0	0	---	0.00	29.962 
00:50	40.2	40.2	40.2	78	33.9	0	0	---	0.00	29.962 
00:55	40.1	40.1	40.1	78	33.8	0	0	---	0.00	29.962 
01:00	39.9	39.9	39.9	79	33.9	0	0	---	0.00	29.967 
01:05	39.8	39.8	39.8	80	34.1	0	0	---	0.00	29.967 
01:10	39.6	39.6	39.6	80	33.9	0	0	---	0.00	29.967 
01:15	39.6	39.6	39.6	80	33.9	0	0	---	0.00	29.970 
01:20	39.5	39.5	39.5	80	33.9	0	0	---	0.00	29.970 
01:25	39.3	39.3	39.3	81	34.0	0	0	---	0.00	29.970 
01:30	39.2	39.2	39.2	81	33.9	0	0	---	0.00	29.973 
01:35	39.1	39.1	39.1	81	33.8	0	0	---	0.00	29.973 
01:40	38.9	38.9	38.9	82	33.9	0	0	---	0.00	29.973 
01:45	38.9	38.9	38.9	82	33.9	0	0	---	0.00	29.972 
01:50	38.8	38.8	38.8	82	33.8	0	0	---	0.00	29.972 
01:55	38.6	38.6	38.6	83	33.9	0	0	---	0.00	29.972 
02:00	38.5	38.5	38.5	83	33.8	0	0	---	0.00	29.969 
02:05	38.3	38.3	38.3	83	33.6	0	0	---	0.00	29.969 
02:10	38.2	38.2	38.2	84	33.8	0	0	---	0.00	29.969 
02:15	38.0	38.0	38.0	84	33.6	0	0	---	0.00	29.963 
02:20	38.0	38.0	38.0	84	33.6	0	0	---	0.00	29.963 
02:25	37.9	37.9	37.9	85	33.8	0	0	---	0.00	29.963 
02:30	37.8	37.8	37.8	85	33.7	0	0	---	0.00	29.960 
02:35	37.6	37.6	37.6	85	33.5	0	0	---	0.00	29.960 
02:40	37.6	37.6	37.6	85	33.5	0	0	---	0.00	29.960 
02:45	37.5	37.5	37.5	85	33.4	0	0	---	0.00	29.953 
02:50	37.3	37.3	37.3	85	33.2	0	0	---	0.00	29.953 
02:55	37.2	37.2	37.2	85	33.1	0	0	---	0.00	29.953 
03:00	37.0	37.0	37.0	86	33.2	0	0	---	0.00	29.959 
03:05	37.0	37.0	37.0	86	33.2	0	0	---	0.00	29.959 
03:10	36.9	36.9	36.9	86	33.1	0	0	---	0.00	29.959 
03:15	36.9	36.9	36.9	86	33.1	0	0	---	0.00	29.959 
03:20	36.8	36.8	36.8	87	33.3	0	0	---	0.00	29.959 
03:25	36.8	36.8	36.8	87	33.3	0	0	---	0.00	29.959 
03:30	36.6	36.6	36.6	87	33.1	0	0	---	0.00	29.959 
03:35	36.5	36.5	36.5	87	33.0	0	0	---	0.00	29.959 
03:40	36.5	36.5	36.5	87	33.0	0	0	---	0.00	29.959 
03:45	36.3	36.3	36.3	87	32.8	0	0	---	0.00	29.961 
03:50	36.3	36.3	36.3	88	33.1	0	0	---	0.00	29.961 
03:55	36.2	36.2	36.2	88	33.0	0	0	---	0.00	29.961 
04:00	36.0	36.0	36.0	88	32.8	0	0	---	0.00	29.960 
04:05	36.0	36.0	36.0	88	32.8	0	0	---	0.00	29.960 
04:10	35.9	35.9	35.9	88	32.7	0	0	---	0.00	29.960 
04:15	35.9	35.9	35.9	88	32.7	0	0	---	0.00	29.962 
04:20	35.8	35.8	35.8	88	32.6	0	0	---	0.00	29.962 
04:25	35.8	35.8	35.8	88	32.6	0	0	---	0.00	29.962 
04:30	35.8	35.8	35.8	89	32.9	0	0	---	0.00	29.962 
04:35	35.6	35.6	35.6	89	32.7	0	0	---	0.00	29.962 
04:40	35.6	35.6	35.6	89	32.7	0	0	---	0.00	29.962 
04:45	35.5	35.5	35.5	89	32.6	0	0	---	0.00	29.964 
04:50	35.3	35.3	35.3	89	32.4	0	0	---	0.00	29.964 
04:55	35.3	35.3	35.3	89	32.4	0	0	---	0.00	29.964 
05:00	35.2	35.2	35.2	89	32.3	0	0	---	0.00	29.962 
05:05	35.2	35.2	35.2	89	32.3	0	0	---	0.00	29.962 
05:10	35.2	35.2	35.2	89	32.3	0	0	---	0.00	29.962 
05:15	35.2	35.2	35.2	90	32.6	0	0	---	0.00	29.960 
05:20	35.0	35.0	35.0	90	32.4	0	0	---	0.00	29.960 
05:25	35.0	35.0	35.0	90	32.4	0	0	---	0.00	29.960 
05:30	34.9	34.9	34.9	90	32.3	0	0	---	0.00	29.957 
05:35	34.9	34.9	34.9	90	32.3	0	0	---	0.00	29.957 
05:40	34.9	34.9	34.9	90	32.3	0	0	---	0.00	29.957 
05:45	35.0	35.0	35.0	91	32.6	0	0	---	0.00	29.962 
05:50	35.0	35.0	35.0	91	32.6	0	0	---	0.00	29.962 
05:55	35.0	35.0	35.0	91	32.6	0	0	---	0.00	29.962 
06:00	34.9	34.9	34.9	91	32.5	0	0	---	0.00	29.962 
06:05	34.7	34.7	34.7	91	32.3	0	0	---	0.00	29.962 
06:10	34.7	34.7	34.7	91	32.3	0	0	---	0.00	29.962 
06:15	34.7	34.7	34.7	91	32.3	0	0	---	0.00	29.963 
06:20	34.7	34.7	34.7	91	32.3	0	0	---	0.00	29.963 
06:25	34.7	34.7	34.7	91	32.3	0	0	---	0.00	29.963 
06:30	34.7	34.7	34.7	91	32.3	0	0	---	0.00	29.967 
06:35	34.7	34.7	34.7	92	32.6	0	0	---	0.00	29.967 
06:40	34.7	34.7	34.7	92	32.6	0	0	---	0.00	29.967 
06:45	34.6	34.6	34.6	92	32.5	0	0	---	0.00	29.966 
06:50	34.6	34.6	34.6	92	32.5	0	0	---	0.00	29.966 
06:55	34.6	34.6	34.6	92	32.5	0	0	---	0.00	29.966 
07:00	34.6	34.6	34.6	92	32.5	0	0	---	0.00	29.967 
07:05	34.6	34.6	34.6	92	32.5	0	0	---	0.00	29.967 
07:10	34.7	34.7	34.7	92	32.6	0	0	---	0.00	29.967 
07:15	35.0	35.0	35.0	92	32.9	0	0	---	0.00	29.980 
07:20	35.0	35.0	35.0	92	32.9	0	0	---	0.00	29.980 
07:25	35.5	35.5	35.5	93	33.7	0	0	---	0.00	29.980 
07:30	35.9	35.9	35.9	93	34.1	0	0	---	0.00	29.979 
07:35	36.3	36.3	36.3	93	34.5	0	0	---	0.00	29.979 
07:40	37.5	37.5	37.5	94	35.9	0	0	---	0.00	29.979 
07:45	38.2	38.2	38.2	93	36.4	0	0	---	0.00	29.977 
07:50	39.1	39.1	39.1	93	37.2	0	0	---	0.00	29.977 
07:55	40.2	40.2	40.2	94	38.6	0	0	---	0.00	29.977 
08:00	41.8	41.8	41.8	90	39.1	0	1	270	0.00	29.975 
08:05	43.5	43.5	43.5	82	38.4	0	1	270	0.00	29.975 
08:10	45.2	45.2	45.2	74	37.4	0	1	270	0.00	29.975 
08:15	46.5	46.5	46.5	70	37.3	0	1	270	0.00	29.970 
08:20	47.3	47.3	47.3	65	36.1	0	2	270	0.00	29.970 
08:25	47.7	47.7	47.7	64	36.1	0	2	158	0.00	29.970 
08:30	48.3	48.3	48.3	63	36.3	0	1	158	0.00	29.972 
08:35	48.8	48.8	48.8	63	36.8	0	2	158	0.00	29.972 
08:40	49.1	49.1	49.1	63	37.1	0	0	---	0.00	29.972 
08:45	49.5	49.5	49.5	63	37.4	0	1	158	0.00	29.969 
08:50	49.9	49.9	49.9	60	36.6	0	1	158	0.00	29.969 
08:55	50.4	50.4	50.4	59	36.6	0	2	158	0.00	29.969 
09:00	50.8	50.8	50.8	56	35.7	0	1	158	0.00	29.971 
09:05	51.1	51.1	51.1	52	34.1	0	2	112	0.00	29.971 
09:10	51.7	51.7	51.7	50	33.7	1	4	112	0.00	29.971 
09:15	52.3	52.3	52.3	50	34.2	1	3	90	0.00	29.964 
09:20	53.1	53.1	53.1	50	35.0	0	3	90	0.00	29.964 
09:25	53.6	53.6	53.6	48	34.4	1	5	112	0.00	29.964 
09:30	53.9	53.9	53.9	49	35.2	1	6	112	0.00	29.956 
09:35	54.4	54.4	54.4	48	35.1	0	2	135	0.00	29.956 
09:40	54.7	54.7	54.7	48	35.4	0	3	270	0.00	29.956 
09:45	55.1	55.1	55.1	49	36.3	1	3	90	0.00	29.953 
09:50	55.4	55.4	55.4	48	36.0	0	2	90	0.00	29.953 
09:55	55.7	55.7	55.7	48	36.3	1	4	180	0.00	29.953 
10:00	56.2	56.2	56.2	47	36.2	0	1	248	0.00	29.950 
10:05	56.7	56.7	56.7	46	36.2	1	4	90	0.00	29.950 
10:10	57.6	57.6	57.6	49	38.6	0	2	90	0.00	29.950 
10:15	58.6	58.6	58.6	46	37.9	0	2	248	0.00	29.943 
10:20	59.2	59.2	59.2	45	37.9	1	4	135	0.00	29.943 
10:25	59.3	59.3	59.3	44	37.4	1	5	90	0.00	29.943 
10:30	59.2	59.2	59.2	43	36.7	1	4	90	0.00	29.939 
10:35	59.2	59.2	59.2	46	38.4	1	4	270	0.00	29.939 
10:40	59.2	59.2	59.2	45	37.9	1	5	90	0.00	29.939 
10:45	59.5	59.5	59.5	46	38.7	1	4	90	0.00	29.938 
10:50	59.8	59.8	59.8	44	37.8	2	7	90	0.00	29.938 
10:55	59.9	59.9	59.9	44	37.9	2	9	90	0.00	29.938 
11:00	60.2	60.2	60.2	44	38.2	3	5	90	0.00	29.937 
11:05	60.5	60.5	60.5	44	38.5	2	5	90	0.00	29.937 
11:10	61.0	61.0	61.0	44	38.9	2	5	90	0.00	29.937 
11:15	61.3	61.3	61.3	46	40.3	1	3	90	0.00	29.931 
11:20	61.8	61.8	61.8	43	39.1	2	6	90	0.00	29.931 
11:25	62.0	62.0	62.0	42	38.6	3	7	112	0.00	29.931 
11:30	62.6	62.6	62.6	44	40.4	2	6	90	0.00	29.927 
11:35	63.4	63.4	63.4	44	41.1	1	4	90	0.00	29.927 
11:40	64.2	64.2	64.2	43	41.2	2	4	90	0.00	29.927 
11:45	64.0	64.0	64.0	42	40.4	2	5	90	0.00	29.917 
11:50	64.0	64.0	64.0	43	41.1	2	8	90	0.00	29.917 
11:55	64.2	64.2	64.2	41	40.0	2	9	90	0.00	29.917 
12:00	64.2	64.2	64.2	41	40.0	3	10	90	0.00	29.911 
12:05	64.5	64.5	64.5	43	41.5	2	7	90	0.00	29.911 
12:10	64.7	64.7	64.7	44	42.3	1	6	45	0.00	29.911 
12:15	64.5	64.5	64.5	42	40.9	3	6	112	0.00	29.907 
12:20	64.5	64.5	64.5	43	41.5	2	9	90	0.00	29.907 
12:25	65.0	65.0	65.0	43	42.0	1	6	90	0.00	29.907 
12:30	65.8	65.8	65.8	42	42.1	2	8	90	0.00	29.898 
12:35	66.6	66.6	66.6	39	40.9	3	10	90	0.00	29.898 
12:40	67.1	67.1	67.1	44	44.5	2	10	90	0.00	29.898 
12:45	67.3	67.3	67.3	42	43.4	3	11	112	0.00	29.890 
12:50	67.6	67.6	67.6	41	43.1	3	8	90	0.00	29.890 
12:55	67.9	67.9	67.9	39	42.0	3	11	90	0.00	29.890 
13:00	68.1	68.1	68.1	38	41.5	2	7	68	0.00	29.887 
13:05	68.1	68.1	68.1	41	43.5	2	9	112	0.00	29.887 
13:10	67.4	67.4	67.4	41	42.9	2	6	270	0.00	29.887 
13:15	67.1	67.1	67.1	43	43.8	2	5	90	0.00	29.882 
13:20	66.8	66.8	66.8	43	43.6	1	5	248	0.00	29.882 
13:25	66.4	66.4	66.4	43	43.2	2	6	90	0.00	29.882 
13:30	66.0	66.0	66.0	43	42.9	2	7	112	0.00	29.874 
13:35	65.6	65.6	65.6	45	43.7	1	4	270	0.00	29.874 
13:40	65.8	65.8	65.8	44	43.3	2	6	90	0.00	29.874 
13:45	66.3	66.3	66.3	46	44.9	1	5	90	0.00	29.863 
13:50	67.8	67.8	67.8	46	46.3	1	4	248	0.00	29.863 
13:55	68.6	68.6	68.6	40	43.3	2	6	90	0.00	29.863 
14:00	68.6	68.6	68.6	42	44.6	2	5	112	0.00	29.854 
14:05	67.9	67.9	67.9	43	44.6	2	5	292	0.00	29.854 
14:10	67.9	67.9	67.9	41	43.3	2	6	90	0.00	29.854 
14:15	68.3	68.3	68.3	39	42.4	4	18	90	0.00	29.846 
14:20	68.4	68.4	68.4	39	42.5	4	8	90	0.00	29.846 
14:25	68.8	68.8	68.8	41	44.1	2	9	90	0.00	29.846 
14:30	68.8	68.8	68.8	41	44.1	4	10	90	0.00	29.837 
14:35	68.8	68.8	68.8	39	42.8	4	8	90	0.00	29.837 
14:40	69.1	69.1	69.1	42	45.0	2	6	135	0.00	29.837 
14:45	69.8	69.8	69.8	43	46.3	2	9	90	0.00	29.831 
14:50	69.6	69.6	69.6	42	45.5	3	8	90	0.00	29.831 
14:55	69.8	69.8	69.8	41	45.0	2	5	112	0.00	29.831 
15:00	70.3	70.3	70.3	43	46.7	2	6	90	0.00	29.827 
15:05	70.8	70.8	70.8	39	44.6	2	6	90	0.00	29.827 
15:10	70.8	70.8	70.8	38	43.9	3	11	90	0.00	29.827 
15:15	70.8	70.8	70.8	40	45.3	2	9	68	0.00	29.821 
15:20	70.4	70.4	70.4	39	44.2	4	7	90	0.00	29.821 
15:25	70.6	70.6	70.6	42	46.4	3	9	90	0.00	29.821 
15:30	71.3	71.3	71.3	38	44.4	2	10	270	0.00	29.810 
15:35	71.1	71.1	71.1	40	45.5	3	8	90	0.00	29.810 
15:40	70.6	70.6	70.6	40	45.1	2	11	112	0.00	29.810 
15:45	70.4	70.4	70.4	40	44.9	3	9	90	0.00	29.799 
15:50	70.3	70.3	70.3	40	44.8	3	6	90	0.00	29.799 
15:55	70.3	70.3	70.3	40	44.8	3	10	112	0.00	29.799 
16:00	70.4	70.4	70.4	41	45.6	3	8	112	0.00	29.790 
16:05	70.4	70.4	70.4	38	43.6	4	10	90	0.00	29.790 
16:10	70.4	70.4	70.4	39	44.2	3	11	112	0.00	29.790 
16:15	70.4	70.4	70.4	38	43.6	4	9	90	0.00	29.782 
16:20	70.3	70.3	70.3	39	44.2	3	9	90	0.00	29.782 
16:25	70.3	70.3	70.3	39	44.2	3	12	90	0.00	29.782 
16:30	70.6	70.6	70.6	39	44.4	4	14	112	0.00	29.769 
16:35	70.9	70.9	70.9	38	44.0	5	10	90	0.00	29.769 
16:40	71.3	71.3	71.3	39	45.1	4	12	90	0.00	29.769 
16:45	71.6	71.6	71.6	39	45.3	3	5	90	0.00	29.763 
16:50	71.6	71.6	71.6	37	43.9	4	10	90	0.00	29.763 
16:55	71.5	71.5	71.5	39	45.2	2	6	112	0.00	29.763 
17:00	71.1	71.1	71.1	38	44.2	4	9	90	0.00	29.757 
17:05	70.8	70.8	70.8	40	45.3	3	9	90	0.00	29.757 
17:10	70.6	70.6	70.6	39	44.4	3	9	90	0.00	29.757 
17:15	70.6	70.6	70.6	39	44.4	2	7	68	0.00	29.749 
17:20	70.9	70.9	70.9	39	44.7	3	11	90	0.00	29.749 
17:25	71.1	71.1	71.1	39	44.9	3	9	90	0.00	29.749 
17:30	71.3	71.3	71.3	37	43.7	4	14	112	0.00	29.739 
17:35	71.3	71.3	71.3	38	44.4	4	10	90	0.00	29.739 
17:40	71.5	71.5	71.5	39	45.2	2	9	90	0.00	29.739 
17:45	71.5	71.5	71.5	38	44.5	3	9	112	0.00	29.731 
17:50	71.3	71.3	71.3	38	44.4	4	10	90	0.00	29.731 
17:55	71.1	71.1	71.1	39	44.9	2	10	90	0.00	29.731 
18:00	71.1	71.1	71.1	39	44.9	2	6	112	0.00	29.727 
18:05	71.1	71.1	71.1	39	44.9	3	11	112	0.00	29.727 
18:10	71.1	71.1	71.1	39	44.9	2	6	112	0.00	29.727 
18:15	71.3	71.3	71.3	38	44.4	3	9	90	0.00	29.717 
18:20	71.5	71.5	71.5	39	45.2	2	10	90	0.00	29.717 
18:25	71.5	71.5	71.5	39	45.2	3	10	112	0.00	29.717 
18:30	71.5	71.5	71.5	39	45.2	3	6	90	0.00	29.713 
18:35	71.5	71.5	71.5	39	45.2	3	7	112	0.00	29.713 
18:40	71.5	71.5	71.5	40	45.9	2	6	112	0.00	29.713 
18:45	71.3	71.3	71.3	39	45.1	4	11	112	0.00	29.703 
18:50	71.3	71.3	71.3	38	44.4	3	10	90	0.00	29.703 
18:55	71.1	71.1	71.1	39	44.9	2	13	112	0.00	29.703 
19:00	70.9	70.9	70.9	39	44.7	3	10	90	0.00	29.701 
19:05	70.9	70.9	70.9	40	45.4	3	9	112	0.00	29.701 
19:10	70.8	70.8	70.8	41	45.9	3	7	90	0.00	29.701 
19:15	70.8	70.8	70.8	40	45.3	2	5	90	0.00	29.692 
19:20	70.8	70.8	70.8	40	45.3	2	6	112	0.00	29.692 
19:25	70.6	70.6	70.6	40	45.1	2	7	90	0.00	29.692 
19:30	70.6	70.6	70.6	40	45.1	2	6	90	0.00	29.684 
19:35	70.6	70.6	70.6	40	45.1	2	4	112	0.00	29.684 
19:40	70.4	70.4	70.4	41	45.6	3	6	90	0.00	29.684 
19:45	70.3	70.3	70.3	41	45.5	2	7	112	0.00	29.682 
19:50	70.1	70.1	70.1	42	45.9	2	9	90	0.00	29.682 
19:55	69.9	69.9	69.9	42	45.8	2	9	112	0.00	29.682 
20:00	69.8	69.8	69.8	43	46.3	2	6	90	0.00	29.680 
20:05	69.8	69.8	69.8	43	46.3	2	9	90	0.00	29.680 
20:10	69.6	69.6	69.6	43	46.1	3	7	112	0.00	29.680 
20:15	69.4	69.4	69.4	43	45.9	1	4	90	0.00	29.673 
20:20	69.3	69.3	69.3	44	46.4	2	4	90	0.00	29.673 
20:25	68.9	68.9	68.9	45	46.7	2	5	112	0.00	29.673 
20:30	68.8	68.8	68.8	45	46.6	2	7	112	0.00	29.671 
20:35	68.4	68.4	68.4	45	46.2	2	4	90	0.00	29.671 
20:40	68.3	68.3	68.3	46	46.7	2	10	90	0.00	29.671 
20:45	68.1	68.1	68.1	46	46.5	3	6	90	0.00	29.669 
20:50	67.9	67.9	67.9	46	46.3	2	7	90	0.00	29.669 
20:55	67.8	67.8	67.8	46	46.3	2	6	112	0.00	29.669 
21:00	67.6	67.6	67.6	46	46.1	1	4	90	0.00	29.670 
21:05	67.4	67.4	67.4	46	45.9	3	7	90	0.00	29.670 
21:10	67.3	67.3	67.3	46	45.8	3	8	90	0.00	29.670 
21:15	67.1	67.1	67.1	46	45.6	2	9	90	0.00	29.664 
21:20	66.9	66.9	66.9	47	46.0	2	4	112	0.00	29.664 
21:25	66.8	66.8	66.8	47	45.9	2	7	90	0.00	29.664 
21:30	66.6	66.6	66.6	47	45.7	2	11	90	0.00	29.662 
21:35	66.4	66.4	66.4	48	46.1	3	7	112	0.00	29.662 
21:40	66.3	66.3	66.3	48	46.0	2	5	112	0.00	29.662 
21:45	66.1	66.1	66.1	48	45.8	2	5	90	0.00	29.663 
21:50	66.0	66.0	66.0	49	46.3	2	7	90	0.00	29.663 
21:55	65.6	65.6	65.6	50	46.5	1	4	112	0.00	29.663 
22:00	65.5	65.5	65.5	50	46.4	1	5	135	0.00	29.671 
22:05	65.3	65.3	65.3	50	46.2	1	4	112	0.00	29.671 
22:10	65.2	65.2	65.2	51	46.6	2	7	135	0.00	29.671 
22:15	65.2	65.2	65.2	50	46.1	2	7	90	0.00	29.670 
22:20	65.2	65.2	65.2	51	46.6	2	6	135	0.00	29.670 
22:25	65.0	65.0	65.0	51	46.4	1	5	135	0.00	29.670 
22:30	64.8	64.8	64.8	52	46.8	2	5	90	0.00	29.670 
22:35	64.7	64.7	64.7	52	46.7	2	6	90	0.00	29.670 
22:40	64.5	64.5	64.5	52	46.5	2	9	90	0.00	29.670 
22:45	64.5	64.5	64.5	52	46.5	2	5	112	0.00	29.666 
22:50	64.5	64.5	64.5	52	46.5	2	6	112	0.00	29.666 
22:55	64.5	64.5	64.5	52	46.5	1	5	112	0.00	29.666 
23:00	64.2	64.2	64.2	53	46.7	2	5	45	0.00	29.668 
23:05	64.0	64.0	64.0	53	46.5	1	5	135	0.00	29.668 
23:10	63.9	63.9	63.9	54	46.9	1	3	112	0.00	29.668 
23:15	63.5	63.5	63.5	55	47.0	1	4	90	0.00	29.665 
23:20	63.2	63.2	63.2	55	46.8	1	4	112	0.00	29.665 
23:25	63.1	63.1	63.1	55	46.7	1	5	68	0.00	29.665 
23:30	63.1	63.1	63.1	56	47.1	1	5	90	0.00	29.668 
23:35	62.9	62.9	62.9	56	47.0	1	6	270	0.00	29.668 
23:40	62.7	62.7	62.7	56	46.8	0	2	292	0.00	29.668 
23:45	62.6	62.6	62.6	57	47.1	1	2	292	0.00	29.667 
23:50	62.4	62.4	62.4	57	47.0	0	2	45	0.00	29.667 
23:55	62.3	62.3	62.3	58	47.3	0	1	22	0.00	29.667 

CoCoRaHS
IN-AL-39
A2 Web Hosting
Creative Commons License
GoDaddy
search engine by freefind advanced

loaded 2018-11-20 09:04:15 • last modified 2010-11-18 10:43:29
Privacy PolicyDisclaimer
• wx.awcolley.com is powered by PmWiki v.2002016 •
• all content (unless otherwise noted) © 2018 A W Colley